Time;durP1;ratioP1;P1;durP2;ratioP2;P2;SDS_P1;SDS_P2;PMS_P1;PMS_P2;Temp;Humidity;BMP_temperature;BMP_pressure;BME280_temperature;BME280_humidity;BME280_pressure;Samples;Min_cycle;Max_cycle;Signal;HPM_P1;HPM_P2
2022/05/15 00:02:43;;;;;;;1.70;1.20;;;21.20;49.20;;;;;;5092705;28;20032;-78
2022/05/15 00:05:09;;;;;;;4.90;1.13;;;21.30;49.10;;;;;;5093299;28;20039;-78
2022/05/15 00:07:35;;;;;;;2.17;1.25;;;21.20;49.00;;;;;;5094608;28;20024;-78
2022/05/15 00:10:02;;;;;;;4.03;1.23;;;21.20;49.00;;;;;;5094216;28;20024;-78
2022/05/15 00:12:28;;;;;;;1.80;1.15;;;21.10;49.00;;;;;;5093692;28;20020;-78
2022/05/15 00:14:54;;;;;;;8.82;1.42;;;21.00;49.20;;;;;;5096486;28;20398;-78
2022/05/15 00:17:19;;;;;;;2.67;1.27;;;20.90;49.30;;;;;;5094534;28;20063;-80
2022/05/15 00:19:50;;;;;;;3.10;1.40;;;21.00;49.30;;;;;;5094258;28;20080;-78
2022/05/15 00:22:16;;;;;;;4.07;1.45;;;21.00;49.00;;;;;;5083884;28;20103;-78
2022/05/15 00:24:42;;;;;;;2.28;1.38;;;21.00;49.20;;;;;;5074083;28;20063;-78
2022/05/15 00:27:08;;;;;;;4.68;1.23;;;21.00;48.90;;;;;;5073549;28;20023;-78
2022/05/15 00:29:34;;;;;;;4.00;1.20;;;21.00;48.90;;;;;;5081790;28;20024;-78
2022/05/15 00:32:00;;;;;;;2.75;1.40;;;21.00;49.00;;;;;;5092919;28;20146;-78
2022/05/15 00:34:25;;;;;;;2.55;1.30;;;21.00;48.80;;;;;;5074297;28;20119;-78
2022/05/15 00:36:53;;;;;;;2.30;1.25;;;21.00;48.60;;;;;;5073960;28;20035;-80
2022/05/15 00:39:19;;;;;;;3.20;1.33;;;21.00;48.60;;;;;;5073918;28;20565;-78
2022/05/15 00:41:45;;;;;;;4.78;1.00;;;21.00;48.70;;;;;;5073743;28;20074;-79
2022/05/15 00:44:10;;;;;;;4.22;1.23;;;21.10;48.50;;;;;;5090151;28;20450;-78
2022/05/15 00:46:39;;;;;;;4.88;1.27;;;21.10;48.40;;;;;;5093720;28;20627;-79
2022/05/15 00:49:07;;;;;;;3.85;1.30;;;21.00;48.30;;;;;;5093561;28;20024;-78
2022/05/15 00:51:39;;;;;;;2.28;1.23;;;21.10;48.50;;;;;;5093662;28;20044;-78
2022/05/15 00:54:09;;;;;;;2.15;1.15;;;21.00;48.20;;;;;;5093937;28;20228;-79
2022/05/15 00:56:40;;;;;;;2.92;1.40;;;21.10;48.00;;;;;;5093819;28;20532;-78
2022/05/15 00:59:15;;;;;;;1.73;0.95;;;21.00;48.20;;;;;;5088558;28;20560;-78
2022/05/15 01:01:41;;;;;;;6.03;1.83;;;21.00;48.10;;;;;;5073533;28;20016;-78
2022/05/15 01:04:08;;;;;;;2.17;1.10;;;20.90;48.10;;;;;;5072861;28;20025;-77
2022/05/15 01:06:36;;;;;;;3.15;1.30;;;20.90;48.20;;;;;;5073146;28;20023;-78
2022/05/15 01:09:04;;;;;;;5.10;1.30;;;20.80;48.30;;;;;;5073493;28;20032;-78
2022/05/15 01:11:33;;;;;;;2.67;1.08;;;20.80;48.20;;;;;;5073515;28;20028;-78
2022/05/15 01:14:05;;;;;;;1.83;1.13;;;20.80;48.50;;;;;;5094743;28;20487;-78
2022/05/15 01:16:32;;;;;;;5.45;1.08;;;20.80;48.30;;;;;;5113901;28;20041;-78
2022/05/15 01:19:00;;;;;;;4.28;1.23;;;20.80;48.40;;;;;;5101474;28;20024;-78
2022/05/15 01:21:36;;;;;;;3.83;1.10;;;20.80;48.50;;;;;;5084426;28;20040;-78
2022/05/15 01:24:06;;;;;;;2.03;1.30;;;20.80;48.50;;;;;;5072888;28;20032;-78
2022/05/15 01:26:33;;;;;;;4.25;1.60;;;20.80;48.60;;;;;;5093706;28;20490;-78
2022/05/15 01:29:00;;;;;;;3.33;1.10;;;20.80;48.80;;;;;;5093308;28;20024;-78
2022/05/15 01:31:26;;;;;;;2.35;0.98;;;20.80;48.70;;;;;;5075306;28;20082;-78
2022/05/15 01:33:52;;;;;;;2.67;1.23;;;20.70;48.90;;;;;;5073344;28;20063;-78
2022/05/15 01:36:20;;;;;;;3.25;1.33;;;20.70;48.80;;;;;;5072981;28;20060;-78
2022/05/15 01:38:47;;;;;;;3.85;1.20;;;20.50;48.90;;;;;;5072615;28;20510;-78
2022/05/15 01:41:13;;;;;;;1.90;1.00;;;20.50;49.10;;;;;;5072945;28;20025;-78
2022/05/15 01:43:47;;;;;;;3.42;1.55;;;20.50;49.30;;;;;;5073085;28;20028;-78
2022/05/15 01:46:13;;;;;;;4.80;1.35;;;20.40;49.50;;;;;;5073007;28;20050;-78
2022/05/15 01:48:39;;;;;;;1.95;1.10;;;20.40;49.40;;;;;;5072924;28;20448;-78
2022/05/15 01:51:05;;;;;;;2.33;1.40;;;20.50;49.70;;;;;;5075467;28;20103;-78
2022/05/15 01:53:31;;;;;;;4.93;0.95;;;20.40;49.60;;;;;;5081874;28;20017;-78
2022/05/15 01:55:56;;;;;;;2.45;1.30;;;20.30;49.70;;;;;;5072702;28;20692;-78
2022/05/15 01:58:23;;;;;;;2.92;1.33;;;20.30;49.80;;;;;;5072349;28;20025;-78
2022/05/15 02:00:50;;;;;;;2.58;1.02;;;20.30;49.90;;;;;;5072911;28;20029;-78
2022/05/15 02:03:16;;;;;;;3.45;1.20;;;20.30;49.80;;;;;;5072827;28;20027;-78
2022/05/15 02:05:41;;;;;;;1.70;0.90;;;20.20;50.10;;;;;;5072768;28;20080;-77
2022/05/15 02:08:09;;;;;;;2.95;1.50;;;20.30;49.90;;;;;;5091950;28;20021;-78
2022/05/15 02:10:35;;;;;;;4.35;1.55;;;20.20;50.00;;;;;;5093123;28;20031;-78
2022/05/15 02:13:01;;;;;;;1.70;1.42;;;20.20;50.30;;;;;;5095102;28;20020;-78
2022/05/15 02:15:27;;;;;;;3.50;1.42;;;20.10;50.20;;;;;;5103107;28;20028;-78
2022/05/15 02:17:52;;;;;;;4.70;1.20;;;20.10;50.30;;;;;;5075429;28;20028;-79
2022/05/15 02:20:19;;;;;;;2.97;1.20;;;20.20;50.10;;;;;;5092934;28;20056;-79
2022/05/15 02:22:44;;;;;;;2.83;1.35;;;20.10;50.30;;;;;;5092906;28;20100;-78
2022/05/15 02:25:14;;;;;;;2.90;1.33;;;20.10;50.40;;;;;;5087559;28;20056;-78
2022/05/15 02:27:40;;;;;;;1.98;1.13;;;20.10;50.40;;;;;;5072573;28;20112;-78
2022/05/15 02:30:08;;;;;;;2.35;1.13;;;20.10;50.30;;;;;;5072919;28;20060;-78
2022/05/15 02:32:33;;;;;;;2.92;1.67;;;20.10;50.40;;;;;;5092813;28;20044;-78
2022/05/15 02:34:59;;;;;;;2.80;1.30;;;20.00;50.50;;;;;;5093994;28;20027;-78
2022/05/15 02:37:25;;;;;;;1.92;1.17;;;20.10;50.60;;;;;;5096446;28;20470;-78
2022/05/15 02:39:50;;;;;;;3.03;1.15;;;20.10;50.60;;;;;;5084236;28;20108;-79
2022/05/15 02:42:21;;;;;;;2.80;1.15;;;20.10;50.80;;;;;;5076107;28;20496;-78
2022/05/15 02:44:47;;;;;;;3.75;1.23;;;20.20;50.50;;;;;;5075710;28;20046;-78
2022/05/15 02:47:12;;;;;;;1.83;1.15;;;20.20;50.50;;;;;;5076076;28;20527;-79
2022/05/15 02:52:22;;;;;;;3.75;1.40;;;20.10;50.60;;;;;;5095769;28;20030;-78
2022/05/15 02:54:48;;;;;;;4.18;1.55;;;20.10;50.60;;;;;;5083854;28;20107;-78
2022/05/15 02:57:14;;;;;;;2.45;1.50;;;20.10;50.70;;;;;;5075887;28;20040;-78
2022/05/15 02:59:42;;;;;;;1.85;1.08;;;20.10;50.80;;;;;;5075688;28;20021;-78
2022/05/15 03:02:08;;;;;;;3.60;1.70;;;20.20;50.80;;;;;;5075792;28;20032;-78
2022/05/15 03:04:36;;;;;;;3.80;1.10;;;20.10;51.00;;;;;;5091236;28;20541;-78
2022/05/15 03:07:04;;;;;;;1.90;1.13;;;20.20;51.10;;;;;;5095784;28;20055;-78
2022/05/15 03:09:30;;;;;;;2.80;1.33;;;20.10;50.90;;;;;;5095524;28;20355;-78
2022/05/15 03:11:55;;;;;;;5.15;1.60;;;20.10;51.10;;;;;;5085892;28;20063;-79
2022/05/15 03:14:21;;;;;;;3.47;1.27;;;20.00;51.30;;;;;;5102163;28;20542;-78
2022/05/15 03:16:46;;;;;;;2.65;1.63;;;20.00;51.50;;;;;;5109185;28;20474;-78
2022/05/15 03:19:12;;;;;;;3.42;1.35;;;20.00;51.60;;;;;;5095472;28;20098;-78
2022/05/15 03:21:38;;;;;;;1.88;1.20;;;20.00;51.50;;;;;;5093951;28;20642;-79
2022/05/15 03:24:07;;;;;;;3.20;1.10;;;20.00;51.80;;;;;;5075269;28;20519;-79
2022/05/15 03:26:35;;;;;;;2.67;1.33;;;19.90;51.90;;;;;;5075211;28;20028;-79
2022/05/15 03:29:02;;;;;;;2.83;1.48;;;19.90;52.20;;;;;;5074553;28;20824;-78
2022/05/15 03:31:28;;;;;;;2.28;1.20;;;20.00;52.00;;;;;;5075247;28;20022;-79
2022/05/15 03:33:53;;;;;;;2.95;1.33;;;20.00;52.20;;;;;;5074950;28;20020;-79
2022/05/15 03:36:19;;;;;;;2.15;1.02;;;19.90;52.40;;;;;;5075148;28;20024;-79
2022/05/15 03:38:46;;;;;;;2.83;1.35;;;19.80;52.60;;;;;;5075174;28;20051;-78
2022/05/15 03:41:13;;;;;;;3.30;1.25;;;19.90;52.60;;;;;;5074967;28;20440;-79
2022/05/15 03:43:39;;;;;;;3.78;1.80;;;19.90;52.60;;;;;;5074675;28;20024;-78
2022/05/15 03:46:06;;;;;;;3.85;1.20;;;20.00;52.80;;;;;;5074146;28;20137;-79
2022/05/15 03:48:32;;;;;;;3.30;1.48;;;19.90;52.70;;;;;;5074960;28;20048;-79
2022/05/15 03:50:59;;;;;;;3.97;1.35;;;19.80;53.20;;;;;;5074711;28;20047;-79
2022/05/15 03:53:25;;;;;;;1.58;1.10;;;19.90;52.90;;;;;;5094747;28;20012;-79
2022/05/15 03:55:55;;;;;;;2.10;1.13;;;19.80;53.10;;;;;;5095014;28;20024;-79
2022/05/15 03:58:22;;;;;;;3.20;1.95;;;19.80;53.30;;;;;;5094932;28;20021;-79
2022/05/15 04:00:48;;;;;;;3.00;1.40;;;19.80;53.60;;;;;;5088021;28;20039;-79
2022/05/15 04:03:14;;;;;;;1.88;1.50;;;19.80;53.80;;;;;;5074636;28;20040;-79
2022/05/15 04:05:39;;;;;;;2.95;1.27;;;19.80;53.70;;;;;;5073897;28;20021;-79
2022/05/15 04:08:05;;;;;;;4.68;1.40;;;19.80;53.50;;;;;;5074381;28;20546;-79
2022/05/15 04:10:31;;;;;;;5.38;1.35;;;19.80;53.50;;;;;;5074331;28;20024;-78
2022/05/15 04:12:57;;;;;;;3.00;1.30;;;19.80;53.70;;;;;;5077187;28;20438;-79
2022/05/15 04:15:22;;;;;;;3.47;1.30;;;19.80;53.80;;;;;;5100982;28;20055;-79
2022/05/15 04:17:50;;;;;;;2.45;1.02;;;19.80;53.80;;;;;;5076516;28;20391;-79
2022/05/15 04:20:23;;;;;;;2.13;1.27;;;19.80;53.70;;;;;;5094365;28;20790;-79
2022/05/15 04:22:49;;;;;;;4.32;1.50;;;19.80;53.70;;;;;;5094337;28;20025;-79
2022/05/15 04:25:15;;;;;;;4.63;1.40;;;19.80;53.80;;;;;;5092668;28;20032;-79
2022/05/15 04:27:41;;;;;;;3.15;1.38;;;19.80;54.00;;;;;;5094341;28;20080;-79
2022/05/15 04:30:11;;;;;;;3.03;1.40;;;19.70;54.10;;;;;;5085187;28;20032;-78
2022/05/15 04:32:37;;;;;;;1.70;1.33;;;19.70;54.30;;;;;;5073962;28;20027;-78
2022/05/15 04:35:03;;;;;;;3.33;1.50;;;19.60;54.40;;;;;;5073933;28;20263;-79
2022/05/15 04:37:28;;;;;;;3.22;1.40;;;19.70;54.40;;;;;;5091719;28;20051;-79
2022/05/15 04:39:54;;;;;;;3.70;1.42;;;19.60;54.40;;;;;;5094302;28;20020;-79
2022/05/15 04:42:20;;;;;;;3.50;1.40;;;19.70;54.50;;;;;;5074314;28;20036;-79
2022/05/15 04:44:45;;;;;;;3.08;1.40;;;19.80;54.50;;;;;;5073183;28;20103;-79
2022/05/15 04:47:12;;;;;;;2.42;1.50;;;19.80;54.40;;;;;;5073760;28;20025;-79
2022/05/15 04:49:38;;;;;;;2.92;1.20;;;19.80;54.00;;;;;;5072567;28;20142;-79
2022/05/15 04:52:04;;;;;;;5.95;1.38;;;19.70;54.30;;;;;;5073748;28;20025;-78
2022/05/15 04:54:30;;;;;;;2.53;1.65;;;19.70;54.30;;;;;;5073744;28;20025;-78
2022/05/15 04:56:56;;;;;;;3.38;1.30;;;19.70;54.40;;;;;;5079387;28;20032;-78
2022/05/15 04:59:21;;;;;;;5.30;1.58;;;19.70;54.40;;;;;;5093701;28;20073;-78
2022/05/15 05:01:47;;;;;;;7.45;1.60;;;19.70;54.50;;;;;;5078128;28;20107;-78
2022/05/15 05:04:13;;;;;;;1.83;1.10;;;19.70;54.50;;;;;;5077987;28;20036;-78
2022/05/15 05:06:39;;;;;;;3.40;1.35;;;19.60;54.70;;;;;;5083545;28;20493;-78
2022/05/15 05:09:04;;;;;;;2.70;1.80;;;19.70;54.70;;;;;;5086292;28;20056;-78
2022/05/15 05:11:30;;;;;;;4.18;1.00;;;19.70;54.30;;;;;;5080397;28;20020;-78
2022/05/15 05:13:56;;;;;;;3.08;1.42;;;19.70;54.30;;;;;;5084608;28;20023;-78
2022/05/15 05:16:21;;;;;;;4.30;1.60;;;19.70;54.50;;;;;;5078787;28;20107;-79
2022/05/15 05:18:49;;;;;;;2.78;1.63;;;19.60;54.50;;;;;;5088900;28;20024;-79
2022/05/15 05:21:14;;;;;;;2.67;1.45;;;19.70;54.40;;;;;;5090817;28;20550;-79
2022/05/15 05:23:40;;;;;;;2.70;1.50;;;19.70;54.10;;;;;;5073247;28;20031;-79
2022/05/15 05:26:06;;;;;;;3.03;1.45;;;19.80;54.10;;;;;;5073060;28;20060;-79
2022/05/15 05:28:32;;;;;;;2.50;1.55;;;19.80;54.10;;;;;;5089282;28;20162;-79
2022/05/15 05:30:58;;;;;;;4.53;1.80;;;19.80;54.00;;;;;;5089236;28;20020;-79
2022/05/15 05:33:24;;;;;;;1.80;1.17;;;19.90;54.10;;;;;;5093275;28;20047;-78
2022/05/15 05:35:50;;;;;;;3.50;0.90;;;20.00;53.80;;;;;;5090937;28;20067;-78
2022/05/15 05:38:16;;;;;;;7.25;1.50;;;20.00;53.90;;;;;;5072631;28;20064;-78
2022/05/15 05:40:42;;;;;;;2.60;1.27;;;19.90;54.00;;;;;;5072960;28;20503;-78
2022/05/15 05:43:08;;;;;;;3.67;1.67;;;20.00;54.20;;;;;;5072967;28;20056;-78
2022/05/15 05:45:35;;;;;;;2.58;1.40;;;20.00;54.20;;;;;;5072956;28;20037;-78
2022/05/15 05:48:01;;;;;;;2.80;1.70;;;19.90;54.30;;;;;;5084634;28;20016;-78
2022/05/15 05:50:27;;;;;;;3.83;1.30;;;19.90;54.30;;;;;;5084681;28;20058;-78
2022/05/15 05:52:58;;;;;;;2.58;1.25;;;19.90;54.40;;;;;;5072742;28;20907;-79
2022/05/15 05:55:24;;;;;;;;;;;19.80;54.50;;;;;;5073199;28;20024;-78
2022/05/15 05:57:50;;;;;;;2.60;1.23;;;19.80;54.90;;;;;;5072795;28;19913;-78
2022/05/15 06:00:28;;;;;;;2.78;1.35;;;19.80;54.90;;;;;;5072852;28;20020;-79
2022/05/15 06:04:39;;;;;;;4.50;1.40;;;19.80;55.10;;;;;;5072833;28;20031;-79
2022/05/15 06:05:40;;;;;;;1.90;1.35;;;19.70;55.20;;;;;;5072662;28;20028;-79
2022/05/15 06:08:06;;;;;;;3.42;1.38;;;19.80;55.30;;;;;;5072831;28;20044;-79
2022/05/15 06:10:31;;;;;;;4.25;1.50;;;19.80;55.40;;;;;;5075280;28;20414;-79
2022/05/15 06:12:57;;;;;;;2.95;1.45;;;19.90;55.20;;;;;;5079485;28;20389;-79
2022/05/15 06:15:23;;;;;;;3.50;1.60;;;19.90;55.00;;;;;;5080766;28;20092;-79
2022/05/15 06:17:49;;;;;;;2.30;1.40;;;19.90;55.10;;;;;;5079000;28;20024;-79
2022/05/15 06:20:15;;;;;;;3.08;1.45;;;19.80;55.40;;;;;;5090368;28;20096;-78
2022/05/15 06:22:41;;;;;;;3.22;1.33;;;19.80;55.60;;;;;;5092646;28;20032;-79
2022/05/15 06:25:07;;;;;;;4.25;1.50;;;19.80;55.60;;;;;;5096258;28;20031;-79
2022/05/15 06:27:33;;;;;;;3.10;1.20;;;19.80;55.80;;;;;;5096626;28;20428;-79
2022/05/15 06:29:58;;;;;;;4.78;1.50;;;19.70;56.10;;;;;;5087480;28;20024;-79
2022/05/15 06:32:26;;;;;;;5.00;1.50;;;19.60;56.30;;;;;;5083626;28;20545;-77
2022/05/15 06:34:51;;;;;;;3.13;1.73;;;19.60;56.30;;;;;;5085242;28;20021;-77
2022/05/15 06:37:17;;;;;;;2.67;1.67;;;19.60;56.40;;;;;;5084749;28;20039;-79
2022/05/15 06:39:43;;;;;;;4.38;1.73;;;19.70;56.30;;;;;;5086263;28;20107;-78
2022/05/15 06:42:09;;;;;;;3.58;1.50;;;19.70;56.40;;;;;;5084715;28;20029;-78
2022/05/15 06:44:35;;;;;;;4.80;1.83;;;19.70;56.30;;;;;;5085062;28;20020;-79
2022/05/15 06:47:00;;;;;;;5.68;1.40;;;19.70;56.50;;;;;;5086261;28;20028;-79
2022/05/15 06:49:26;;;;;;;4.22;1.48;;;19.80;56.50;;;;;;5083858;28;20016;-79
2022/05/15 06:51:51;;;;;;;4.72;1.60;;;19.80;56.40;;;;;;5085398;28;20506;-78
2022/05/15 06:54:17;;;;;;;3.83;1.48;;;19.80;56.40;;;;;;5084177;28;20390;-78
2022/05/15 06:59:27;;;;;;;3.85;1.58;;;19.80;56.70;;;;;;5078434;28;20028;-78
2022/05/15 07:01:53;;;;;;;3.83;1.58;;;19.80;56.50;;;;;;5075639;28;20021;-82
2022/05/15 07:04:18;;;;;;;3.63;1.50;;;19.90;56.50;;;;;;5082232;28;20027;-79
2022/05/15 07:06:44;;;;;;;2.05;1.23;;;20.10;56.20;;;;;;5084668;28;20020;-80
2022/05/15 07:09:10;;;;;;;2.53;1.40;;;20.30;55.40;;;;;;5083146;28;20170;-84
2022/05/15 07:11:36;;;;;;;5.72;1.95;;;20.70;55.00;;;;;;5082181;28;20078;-85
2022/05/15 07:14:03;;;;;;;2.28;1.42;;;20.90;54.20;;;;;;5094796;28;20023;-87
2022/05/15 07:16:28;;;;;;;3.00;1.40;;;21.10;53.80;;;;;;5093833;28;20075;-81
2022/05/15 07:18:54;;;;;;;1.83;1.30;;;21.30;53.40;;;;;;5086436;28;20043;-79
2022/05/15 07:21:20;;;;;;;5.72;1.40;;;21.50;52.80;;;;;;5089926;28;20660;-83
2022/05/15 07:23:46;;;;;;;4.65;1.77;;;21.50;52.80;;;;;;5074586;28;20036;-80
2022/05/15 07:26:11;;;;;;;4.13;1.40;;;21.50;52.90;;;;;;5079698;28;20718;-80
2022/05/15 07:28:37;;;;;;;2.95;1.70;;;21.30;53.30;;;;;;5083304;28;20034;-80
2022/05/15 07:31:03;;;;;;;3.72;1.42;;;21.30;53.60;;;;;;5083675;28;20027;-81
2022/05/15 07:33:28;;;;;;;4.38;1.95;;;21.30;53.80;;;;;;5083146;28;20080;-77
2022/05/15 07:35:57;;;;;;;1.65;1.30;;;21.20;53.90;;;;;;5084276;28;20033;-77
2022/05/15 07:38:24;;;;;;;3.38;1.90;;;21.30;54.30;;;;;;5084394;28;20601;-76
2022/05/15 07:40:50;;;;;;;3.30;1.65;;;21.20;54.60;;;;;;5084870;28;20035;-75
2022/05/15 07:43:16;;;;;;;3.20;1.50;;;21.30;54.60;;;;;;5080103;28;20032;-76
2022/05/15 07:45:42;;;;;;;3.63;2.08;;;21.40;54.50;;;;;;5085705;28;20548;-76
2022/05/15 07:48:08;;;;;;;4.13;2.53;;;21.50;54.50;;;;;;5087062;28;20027;-76
2022/05/15 07:50:35;;;;;;;5.28;2.90;;;21.60;54.40;;;;;;5082076;28;20467;-76
2022/05/15 07:53:01;;;;;;;5.40;3.38;;;21.60;53.90;;;;;;5084082;28;20079;-76
2022/05/15 07:55:28;;;;;;;9.20;3.33;;;21.50;54.30;;;;;;5076852;28;20031;-76
2022/05/15 07:57:53;;;;;;;8.13;3.88;;;21.40;54.80;;;;;;5081412;28;20136;-76
2022/05/15 08:00:20;;;;;;;7.15;3.67;;;21.50;55.40;;;;;;5083056;28;20044;-76
2022/05/15 08:02:46;;;;;;;6.93;3.78;;;21.60;55.30;;;;;;5084055;28;20486;-76
2022/05/15 08:08:05;;;;;;;6.53;2.70;;;21.80;55.10;;;;;;5075906;28;20063;-76
2022/05/15 08:10:35;;;;;;;4.55;2.17;;;21.70;55.00;;;;;;5082165;28;20048;-76
2022/05/15 08:13:02;;;;;;;4.18;1.98;;;21.90;54.20;;;;;;5079580;28;20024;-75
2022/05/15 08:15:28;;;;;;;2.72;2.05;;;22.40;53.00;;;;;;5081401;28;20036;-76
2022/05/15 08:17:54;;;;;;;4.68;1.63;;;23.00;52.00;;;;;;5081372;28;20070;-77
2022/05/15 08:25:50;;;;;;;3.38;1.70;;;23.70;49.60;;;;;;5081317;28;20833;-77
2022/05/15 08:28:16;;;;;;;3.20;1.83;;;24.30;49.00;;;;;;5079491;28;20024;-76
2022/05/15 08:30:44;;;;;;;2.95;1.67;;;24.80;47.00;;;;;;5079499;28;20043;-76
2022/05/15 08:33:11;;;;;;;1.80;1.42;;;25.20;46.70;;;;;;5082776;28;20041;-77
2022/05/15 08:35:37;;;;;;;3.58;1.65;;;25.80;45.30;;;;;;5086168;28;20081;-76
2022/05/15 08:38:03;;;;;;;2.22;1.52;;;26.20;44.20;;;;;;5087849;28;20084;-77
2022/05/15 08:40:57;;;;;;;4.25;1.70;;;26.40;44.00;;;;;;5073376;28;20482;-77
2022/05/15 08:43:41;;;;;;;2.90;1.63;;;25.80;45.10;;;;;;5073123;28;20033;-76
2022/05/15 08:46:29;;;;;;;4.57;2.00;;;25.50;45.80;;;;;;5085695;28;20054;-77
2022/05/15 08:49:11;;;;;;;3.13;1.40;;;25.20;46.50;;;;;;5093609;28;20070;-77
2022/05/15 08:51:42;;;;;;;4.78;1.52;;;24.90;46.70;;;;;;5080096;28;20022;-77
2022/05/15 08:54:10;;;;;;;3.60;1.80;;;24.80;47.00;;;;;;5075554;28;20672;-76
2022/05/15 08:56:44;;;;;;;6.45;2.20;;;24.70;47.60;;;;;;5082122;28;20046;-77
2022/05/15 08:59:30;;;;;;;3.47;1.92;;;24.70;47.20;;;;;;5079625;28;20029;-77
2022/05/15 09:01:58;;;;;;;3.40;1.67;;;24.70;47.70;;;;;;5082787;28;20509;-77
2022/05/15 09:04:25;;;;;;;2.47;1.50;;;24.70;48.30;;;;;;5077372;28;20139;-77
2022/05/15 09:07:01;;;;;;;3.53;1.85;;;24.70;48.00;;;;;;5077974;28;20091;-76
2022/05/15 09:09:32;;;;;;;5.53;1.65;;;24.50;48.60;;;;;;5081377;28;20122;-77
2022/05/15 09:12:14;;;;;;;3.72;2.08;;;24.50;48.50;;;;;;5079264;28;20020;-77
2022/05/15 09:15:00;;;;;;;3.80;1.88;;;24.40;48.60;;;;;;5086515;28;20099;-77
2022/05/15 09:17:51;;;;;;;5.25;2.15;;;24.40;48.80;;;;;;5089829;28;20466;-77
2022/05/15 09:20:40;;;;;;;4.07;1.90;;;25.40;47.00;;;;;;5082042;28;20051;-78
2022/05/15 09:23:14;;;;;;;2.70;1.40;;;28.30;42.30;;;;;;5068612;28;20042;-77
2022/05/15 09:25:39;;;;;;;4.68;2.40;;;29.30;38.60;;;;;;5082407;28;20024;-77
2022/05/15 09:28:08;;;;;;;2.63;1.50;;;30.20;37.20;;;;;;5080692;28;20203;-78
2022/05/15 09:30:38;;;;;;;4.33;1.90;;;31.20;36.60;;;;;;5079642;28;20020;-77
2022/05/15 09:33:06;;;;;;;4.65;1.17;;;32.40;33.90;;;;;;5077667;28;20103;-78
2022/05/15 09:35:43;;;;;;;2.65;1.60;;;33.20;34.00;;;;;;5077841;28;20077;-77
2022/05/15 09:38:28;;;;;;;4.45;1.70;;;32.80;33.70;;;;;;5085183;28;20024;-77
2022/05/15 09:44:00;;;;;;;3.28;1.80;;;34.00;31.50;;;;;;5083429;28;20081;-77
2022/05/15 09:46:27;;;;;;;4.90;1.60;;;34.70;30.60;;;;;;5081893;28;20032;-77
2022/05/15 09:49:18;;;;;;;4.60;1.65;;;34.80;30.30;;;;;;5089684;28;20044;-78
2022/05/15 09:51:53;;;;;;;4.03;1.95;;;35.00;30.40;;;;;;5091668;28;20032;-77
2022/05/15 09:54:34;;;;;;;3.53;1.75;;;34.20;30.80;;;;;;5083485;28;20032;-77
2022/05/15 09:57:15;;;;;;;2.35;1.58;;;34.80;30.40;;;;;;5085035;28;20016;-77
2022/05/15 09:59:42;;;;;;;3.10;1.90;;;35.30;29.80;;;;;;5083100;28;20027;-77
2022/05/15 10:02:22;;;;;;;3.53;1.90;;;35.10;29.60;;;;;;5082912;28;20074;-77
2022/05/15 10:04:50;;;;;;;3.05;1.50;;;35.30;30.70;;;;;;5082163;28;20036;-77
2022/05/15 10:07:35;;;;;;;2.50;1.70;;;35.30;29.60;;;;;;5083437;28;20059;-77
2022/05/15 10:10:34;;;;;;;3.90;1.65;;;34.70;30.10;;;;;;5081971;28;20032;-77
2022/05/15 10:13:13;;;;;;;4.15;1.85;;;35.00;30.30;;;;;;5077700;28;20041;-76
2022/05/15 10:15:44;;;;;;;3.55;1.70;;;35.00;30.60;;;;;;5080130;28;20024;-79
2022/05/15 10:18:25;;;;;;;3.55;1.80;;;34.60;30.30;;;;;;5091222;28;20031;-81
2022/05/15 10:20:52;;;;;;;2.75;1.45;;;34.50;30.50;;;;;;5096382;28;20036;-83
2022/05/15 10:23:26;;;;;;;4.07;1.92;;;34.20;31.00;;;;;;5091892;28;20028;-78
2022/05/15 10:25:58;;;;;;;6.70;1.60;;;34.40;32.10;;;;;;5112176;28;20019;-83
2022/05/15 10:28:39;;;;;;;3.63;2.30;;;34.50;31.70;;;;;;5096357;28;20039;-77
2022/05/15 10:31:23;;;;;;;4.07;1.73;;;33.90;31.90;;;;;;5085300;28;20087;-75
2022/05/15 10:33:58;;;;;;;4.43;1.95;;;32.90;33.00;;;;;;5085890;28;20055;-75
2022/05/15 10:36:25;;;;;;;4.25;2.30;;;32.20;35.30;;;;;;5079746;28;20398;-75
2022/05/15 10:39:11;;;;;;;2.60;1.90;;;32.00;35.90;;;;;;5076029;28;20027;-75
2022/05/15 10:41:56;;;;;;;6.35;3.13;;;31.60;36.60;;;;;;5075375;28;20030;-76
2022/05/15 10:44:39;;;;;;;4.43;2.65;;;31.30;37.70;;;;;;5074013;28;20028;-75
2022/05/15 10:47:15;;;;;;;4.25;2.13;;;30.90;38.20;;;;;;5077720;28;20470;-75
2022/05/15 10:50:19;;;;;;;2.90;1.65;;;30.80;37.80;;;;;;5083516;28;20043;-76
2022/05/15 10:57:21;;;;;;;4.63;2.25;;;30.60;37.90;;;;;;5076020;28;20033;-75
2022/05/15 10:59:15;;;;;;;2.63;1.60;;;30.70;39.10;;;;;;5076076;28;20059;-75
2022/05/15 11:02:06;;;;;;;2.42;1.70;;;30.80;39.30;;;;;;5075966;28;20032;-86
2022/05/15 11:05:00;;;;;;;5.40;1.92;;;30.60;39.20;;;;;;5090656;28;20537;-74
2022/05/15 11:07:32;;;;;;;3.42;1.88;;;30.30;39.80;;;;;;5094734;28;20468;-76
2022/05/15 11:10:09;;;;;;;3.08;1.77;;;29.80;40.10;;;;;;5094559;28;20070;-75
2022/05/15 11:13:20;;;;;;;4.70;1.98;;;29.40;40.70;;;;;;5081130;28;20521;-76
2022/05/15 11:15:59;;;;;;;5.68;1.98;;;29.60;41.00;;;;;;5006080;28;20032;-80
2022/05/15 11:19:03;;;;;;;4.20;1.60;;;29.90;41.10;;;;;;5080741;28;20032;-78
2022/05/15 11:21:47;;;;;;;4.07;1.80;;;30.00;40.40;;;;;;5080476;28;20040;-77
2022/05/15 11:24:39;;;;;;;2.95;1.92;;;29.60;40.60;;;;;;5073646;28;20193;-80
2022/05/15 11:27:49;;;;;;;6.60;2.35;;;29.30;40.90;;;;;;5078414;28;20573;-77
2022/05/15 11:30:28;;;;;;;6.03;3.20;;;28.90;41.60;;;;;;5029166;28;20084;-80
2022/05/15 11:32:54;;;;;;;3.47;2.40;;;28.70;42.40;;;;;;5071248;28;20549;-81
2022/05/15 11:35:20;;;;;;;4.88;2.42;;;28.50;43.20;;;;;;5078975;28;20084;-78
2022/05/15 11:38:01;;;;;;;4.70;2.35;;;28.20;43.20;;;;;;5078585;28;20448;-78
2022/05/15 11:40:42;;;;;;;6.55;2.22;;;28.00;44.10;;;;;;5082575;28;20501;-77
2022/05/15 11:43:26;;;;;;;4.22;2.00;;;27.90;44.80;;;;;;5079247;28;20020;-76
2022/05/15 11:46:11;;;;;;;6.80;2.75;;;27.90;44.60;;;;;;5079139;28;20128;-75
2022/05/15 11:48:42;;;;;;;4.30;2.45;;;28.30;45.30;;;;;;5078724;28;20015;-77
2022/05/15 11:51:14;;;;;;;6.72;2.42;;;28.70;44.20;;;;;;5080809;28;20029;-75
2022/05/15 11:54:03;;;;;;;3.75;2.33;;;28.90;44.00;;;;;;5083008;28;20031;-77
2022/05/15 11:56:41;;;;;;;3.20;2.13;;;29.20;43.10;;;;;;5083646;28;20144;-75
2022/05/15 11:59:20;;;;;;;5.55;2.30;;;29.50;41.50;;;;;;5081981;28;20035;-75
2022/05/15 12:01:52;;;;;;;4.47;1.83;;;29.40;42.00;;;;;;5075902;28;20024;-75
2022/05/15 12:04:18;;;;;;;4.47;2.00;;;29.40;42.50;;;;;;5086437;28;20020;-75
2022/05/15 12:07:10;;;;;;;3.85;2.10;;;29.60;43.20;;;;;;5079779;28;20036;-76
2022/05/15 12:09:41;;;;;;;3.58;1.73;;;29.30;42.40;;;;;;5070062;28;20028;-75
2022/05/15 12:12:28;;;;;;;4.22;2.17;;;29.20;42.00;;;;;;5080532;28;20577;-75
2022/05/15 12:15:21;;;;;;;3.13;2.05;;;29.40;44.70;;;;;;5080713;28;20059;-75
2022/05/15 12:17:49;;;;;;;3.45;2.05;;;29.40;43.40;;;;;;5080007;28;20016;-75
2022/05/15 12:20:31;;;;;;;4.43;1.90;;;29.30;42.30;;;;;;5085087;28;20048;-76
2022/05/15 12:23:14;;;;;;;5.15;2.30;;;29.50;41.60;;;;;;5077905;28;20016;-75
2022/05/15 12:26:15;;;;;;;3.75;1.95;;;29.30;43.30;;;;;;5081509;28;20558;-75
2022/05/15 12:29:04;;;;;;;2.90;1.83;;;29.50;42.70;;;;;;5075722;28;20586;-75
2022/05/15 12:31:48;;;;;;;3.72;1.65;;;29.30;41.60;;;;;;5076670;28;20050;-75
2022/05/15 12:34:15;;;;;;;3.90;2.00;;;29.30;41.20;;;;;;5075556;28;20156;-76
2022/05/15 12:36:44;;;;;;;4.25;1.83;;;29.40;41.70;;;;;;5076369;28;20016;-76
2022/05/15 12:39:34;;;;;;;2.90;1.73;;;29.30;42.20;;;;;;5076353;28;20691;-75
2022/05/15 12:42:01;;;;;;;;;;;29.60;42.10;;;;;;5083509;28;20023;-75
2022/05/15 12:44:35;;;;;;;4.22;1.73;;;29.80;40.30;;;;;;5081051;28;20011;-75
2022/05/15 12:47:03;;;;;;;5.63;2.25;;;30.10;41.70;;;;;;5081452;28;20098;-75
2022/05/15 12:49:32;;;;;;;4.27;2.40;;;30.20;38.80;;;;;;5082641;28;20024;-79
2022/05/15 12:52:24;;;;;;;5.63;2.40;;;29.80;39.50;;;;;;5083569;28;20021;-76
2022/05/15 12:55:04;;;;;;;5.00;2.35;;;29.90;40.50;;;;;;5083638;28;20029;-75
2022/05/15 12:57:29;;;;;;;5.53;1.98;;;29.80;40.40;;;;;;5081545;28;20494;-76
2022/05/15 12:59:56;;;;;;;3.85;2.20;;;29.90;39.70;;;;;;5077780;28;20512;-76
2022/05/15 13:02:32;;;;;;;3.45;1.83;;;29.70;40.40;;;;;;5081777;28;20024;-76
2022/05/15 13:05:00;;;;;;;4.72;2.10;;;29.70;41.30;;;;;;5083797;28;20409;-76
2022/05/15 13:07:28;;;;;;;5.45;2.38;;;29.80;40.10;;;;;;5082698;28;20498;-76
2022/05/15 13:10:00;;;;;;;2.90;2.10;;;29.90;41.00;;;;;;5080523;28;20035;-78
2022/05/15 13:12:25;;;;;;;5.20;1.83;;;29.90;40.10;;;;;;5071733;28;20029;-75
2022/05/15 13:14:51;;;;;;;4.43;2.67;;;29.90;41.10;;;;;;5090056;28;20612;-76
2022/05/15 13:17:43;;;;;;;5.32;2.20;;;29.80;40.80;;;;;;5077896;28;20803;-76
2022/05/15 13:20:17;;;;;;;5.35;2.25;;;29.80;41.40;;;;;;5083697;28;20044;-76
2022/05/15 13:22:44;;;;;;;3.22;2.10;;;29.90;41.10;;;;;;5084440;28;20449;-79
2022/05/15 13:25:27;;;;;;;7.18;2.40;;;29.80;40.00;;;;;;5081196;28;20183;-75
2022/05/15 13:27:54;;;;;;;4.32;2.30;;;29.60;42.30;;;;;;5079005;28;20032;-75